PWSweather.com
Personal Weather Stations
Station Observations
SUBOTICARS
SuboticaYU

SuboticaYU

Lat: 46.1296717, Lon: 19.641551

Elevation: 361

Station Type: Nexus

http://sumeteo.info

Latest ConditionsUpdated 7:50:01 AM GMT+01:01 Saturday, Feb 6, 2016
Currently Today's Max Today's Min Today's Average
Temperature 30.6°F-0.8°C 30.6°F-0.8°C 27.7°F-2.4°C 29.2°F-1.6°C
Dew Point 29.0°F-1.7°C 29.3°F-1.5°C 26.4°F-3.1°C 27.9°F-2.3°C
Winds 2.3 mph WSW3.7 kmh WSW 2.3 mph WSW3.7 kmh WSW - 1.0 mph 1.6 kmh
Wind Gusts 3.5 mph5.6 kmh 3.5 mph5.6 kmh - -
Humidity 94% 96% 93% 95%
Pressure 30.43 in1030.5 mb 30.43 in1030.5 mb 30.39 in1029.1 mb -
Hour Temp Dew Point Humidity Winds Wind Gusts Pressure Precip Precip Rate Daily Precip Total
07:50 AM 30.6°F-0.8°C 29.0°F-1.7°C 94% 2.3 mph WSW3.7 kmh WSW 3.5 mph5.6 kmh 30.43 in1030.5 mb - 0.00 in0.0 mm 0.00 in0.0 mm
07:40 AM 30.6°F-0.8°C 29.0°F-1.7°C 94% 1.2 mph SW1.9 kmh SW 3.5 mph5.6 kmh 30.42 in1030.1 mb - 0.00 in0.0 mm 0.00 in0.0 mm
07:30 AM 30.2°F-1.0°C 28.9°F-1.7°C 95% 1.2 mph SW1.9 kmh SW 1.2 mph1.9 kmh 30.42 in1030.1 mb - 0.00 in0.0 mm 0.00 in0.0 mm
07:20 AM 30.6°F-0.8°C 29.3°F-1.5°C 95% 1.2 mph SW1.9 kmh SW 1.2 mph1.9 kmh 30.41 in1029.8 mb - 0.00 in0.0 mm 0.00 in0.0 mm
07:10 AM 30.6°F-0.8°C 29.3°F-1.5°C 95% 2.3 mph WSW3.7 kmh WSW 3.5 mph5.6 kmh 30.41 in1029.8 mb - 0.00 in0.0 mm 0.00 in0.0 mm
07:00 AM 30.6°F-0.8°C 29.3°F-1.5°C 95% 2.3 mph SSW3.7 kmh SSW 3.5 mph5.6 kmh 30.40 in1029.5 mb - 0.00 in0.0 mm 0.00 in0.0 mm
06:50 AM 30.4°F-0.9°C 29.1°F-1.6°C 95% 2.3 mph SW3.7 kmh SW 2.3 mph3.7 kmh 30.40 in1029.5 mb - 0.00 in0.0 mm 0.00 in0.0 mm
06:40 AM 30.0°F-1.1°C 29.0°F-1.7°C 96% 2.3 mph W3.7 kmh W 2.3 mph3.7 kmh 30.40 in1029.5 mb - 0.00 in0.0 mm 0.00 in0.0 mm
06:30 AM 29.5°F-1.4°C 28.5°F-1.9°C 96% 2.3 mph WSW3.7 kmh WSW 2.3 mph3.7 kmh 30.40 in1029.5 mb - 0.00 in0.0 mm 0.00 in0.0 mm
06:20 AM 29.1°F-1.6°C 28.1°F-2.2°C 96% 2.3 mph W3.7 kmh W 3.5 mph5.6 kmh 30.41 in1029.8 mb - 0.00 in0.0 mm 0.00 in0.0 mm
06:10 AM 28.4°F-2.0°C 27.4°F-2.6°C 96% 2.3 mph WSW3.7 kmh WSW 1.2 mph1.9 kmh 30.41 in1029.8 mb - 0.00 in0.0 mm 0.00 in0.0 mm
06:00 AM 28.0°F-2.2°C 27.0°F-2.8°C 96% 2.3 mph SW3.7 kmh SW 3.5 mph5.6 kmh 30.40 in1029.5 mb - 0.00 in0.0 mm 0.00 in0.0 mm
05:50 AM 27.9°F-2.3°C 26.9°F-2.8°C 96% 2.3 mph WSW3.7 kmh WSW 2.3 mph3.7 kmh 30.40 in1029.5 mb - 0.00 in0.0 mm 0.00 in0.0 mm
05:40 AM 28.0°F-2.2°C 27.0°F-2.8°C 96% 1.2 mph WSW1.9 kmh WSW 1.2 mph1.9 kmh 30.40 in1029.5 mb - 0.00 in0.0 mm 0.00 in0.0 mm
05:30 AM 28.4°F-2.0°C 27.4°F-2.6°C 96% 1.2 mph SW1.9 kmh SW 2.3 mph3.7 kmh 30.40 in1029.5 mb - 0.00 in0.0 mm 0.00 in0.0 mm
05:20 AM 28.4°F-2.0°C 27.4°F-2.6°C 96% 1.2 mph SW1.9 kmh SW 2.3 mph3.7 kmh 30.40 in1029.5 mb - 0.00 in0.0 mm 0.00 in0.0 mm
05:10 AM 28.0°F-2.2°C 27.0°F-2.8°C 96% 1.2 mph SW1.9 kmh SW 1.2 mph1.9 kmh 30.40 in1029.5 mb - 0.00 in0.0 mm 0.00 in0.0 mm
05:00 AM 27.7°F-2.4°C 26.4°F-3.1°C 95% 2.3 mph WSW3.7 kmh WSW 2.3 mph3.7 kmh 30.40 in1029.5 mb - 0.00 in0.0 mm 0.00 in0.0 mm
04:50 AM 27.7°F-2.4°C 26.4°F-3.1°C 95% 2.3 mph SW3.7 kmh SW 2.3 mph3.7 kmh 30.40 in1029.5 mb - 0.00 in0.0 mm 0.00 in0.0 mm
04:40 AM 27.9°F-2.3°C 26.4°F-3.1°C 94% Calm Calm 1.2 mph1.9 kmh 30.41 in1029.8 mb - 0.00 in0.0 mm 0.00 in0.0 mm
04:30 AM 28.4°F-2.0°C 27.2°F-2.7°C 95% Calm Calm -- 30.41 in1029.8 mb - 0.00 in0.0 mm 0.00 in0.0 mm
04:20 AM 28.6°F-1.9°C 27.1°F-2.7°C 94% Calm Calm -- 30.41 in1029.8 mb - 0.00 in0.0 mm 0.00 in0.0 mm
04:10 AM 29.1°F-1.6°C 27.6°F-2.4°C 94% Calm Calm -- 30.41 in1029.8 mb - 0.00 in0.0 mm 0.00 in0.0 mm
04:00 AM 29.3°F-1.5°C 27.8°F-2.3°C 94% Calm Calm -- 30.41 in1029.8 mb - 0.00 in0.0 mm 0.00 in0.0 mm
03:50 AM 29.8°F-1.2°C 28.1°F-2.2°C 93% Calm Calm -- 30.41 in1029.8 mb - 0.00 in0.0 mm 0.00 in0.0 mm
03:40 AM 30.2°F-1.0°C 28.4°F-2.0°C 93% Calm Calm -- 30.40 in1029.5 mb - 0.00 in0.0 mm 0.00 in0.0 mm
03:30 AM 30.5°F-0.8°C 29.0°F-1.7°C 94% Calm Calm -- 30.40 in1029.5 mb - 0.00 in0.0 mm 0.00 in0.0 mm
03:20 AM 30.6°F-0.8°C 29.0°F-1.7°C 94% Calm Calm -- 30.41 in1029.8 mb - 0.00 in0.0 mm 0.00 in0.0 mm
03:10 AM 30.6°F-0.8°C 29.0°F-1.7°C 94% Calm Calm -- 30.41 in1029.8 mb - 0.00 in0.0 mm 0.00 in0.0 mm
03:00 AM 30.6°F-0.8°C 29.0°F-1.7°C 94% 1.2 mph WNW1.9 kmh WNW 1.2 mph1.9 kmh 30.41 in1029.8 mb - 0.00 in0.0 mm 0.00 in0.0 mm
02:50 AM 30.6°F-0.8°C 29.3°F-1.5°C 95% 1.2 mph WNW1.9 kmh WNW 2.3 mph3.7 kmh 30.41 in1029.8 mb - 0.00 in0.0 mm 0.00 in0.0 mm
02:40 AM 30.5°F-0.8°C 29.2°F-1.6°C 95% Calm Calm -- 30.41 in1029.8 mb - 0.00 in0.0 mm 0.00 in0.0 mm
02:30 AM 29.8°F-1.2°C 28.6°F-1.9°C 95% Calm Calm -- 30.41 in1029.8 mb - 0.00 in0.0 mm 0.00 in0.0 mm
02:20 AM 29.3°F-1.5°C 28.1°F-2.2°C 95% Calm Calm -- 30.41 in1029.8 mb - 0.00 in0.0 mm 0.00 in0.0 mm
02:10 AM 29.1°F-1.6°C 27.9°F-2.3°C 95% 2.3 mph W3.7 kmh W 2.3 mph3.7 kmh 30.41 in1029.8 mb - 0.00 in0.0 mm 0.00 in0.0 mm
02:00 AM 28.8°F-1.8°C 27.5°F-2.5°C 95% Calm Calm 2.3 mph3.7 kmh 30.43 in1030.5 mb - 0.00 in0.0 mm 0.00 in0.0 mm
01:50 AM 28.8°F-1.8°C 27.5°F-2.5°C 95% Calm Calm 1.2 mph1.9 kmh 30.43 in1030.5 mb - 0.00 in0.0 mm 0.00 in0.0 mm
01:40 AM 29.1°F-1.6°C 27.9°F-2.3°C 95% 1.2 mph W1.9 kmh W 2.3 mph3.7 kmh 30.43 in1030.5 mb - 0.00 in0.0 mm 0.00 in0.0 mm
01:30 AM 29.1°F-1.6°C 27.9°F-2.3°C 95% 1.2 mph NW1.9 kmh NW 1.2 mph1.9 kmh 30.43 in1030.5 mb - 0.00 in0.0 mm 0.00 in0.0 mm
01:20 AM 29.1°F-1.6°C 27.9°F-2.3°C 95% 1.2 mph NW1.9 kmh NW 2.3 mph3.7 kmh 30.42 in1030.1 mb - 0.00 in0.0 mm 0.00 in0.0 mm
01:10 AM 29.1°F-1.6°C 27.9°F-2.3°C 95% 1.2 mph WNW1.9 kmh WNW 2.3 mph3.7 kmh 30.42 in1030.1 mb - 0.00 in0.0 mm 0.00 in0.0 mm
01:00 AM 28.8°F-1.8°C 27.5°F-2.5°C 95% Calm Calm 2.3 mph3.7 kmh 30.42 in1030.1 mb - 0.00 in0.0 mm 0.00 in0.0 mm
12:50 AM 28.8°F-1.8°C 27.5°F-2.5°C 95% 1.2 mph W1.9 kmh W 2.3 mph3.7 kmh 30.42 in1030.1 mb - 0.00 in0.0 mm 0.00 in0.0 mm
12:40 AM 28.8°F-1.8°C 27.5°F-2.5°C 95% 1.2 mph WNW1.9 kmh WNW 2.3 mph3.7 kmh 30.42 in1030.1 mb - 0.00 in0.0 mm 0.00 in0.0 mm
12:30 AM 28.4°F-2.0°C 27.2°F-2.7°C 95% 1.2 mph WNW1.9 kmh WNW 2.3 mph3.7 kmh 30.42 in1030.1 mb - 0.00 in0.0 mm 0.00 in0.0 mm
12:20 AM 28.2°F-2.1°C 26.7°F-2.9°C 94% 1.2 mph SW1.9 kmh SW 3.5 mph5.6 kmh 30.39 in1029.1 mb - 0.00 in0.0 mm 0.00 in0.0 mm
12:10 AM 28.2°F-2.1°C 26.5°F-3.1°C 93% Calm Calm 1.2 mph1.9 kmh 30.39 in1029.1 mb - 0.00 in0.0 mm 0.00 in0.0 mm
12:00 AM 28.4°F-2.0°C 26.6°F-3.0°C 93% Calm Calm -- 30.42 in1030.1 mb - 0.00 in0.0 mm 0.00 in0.0 mm